sensor_id;sensor_type;location;lat;lon;timestamp;P1;durP1;ratioP1;P2;durP2;ratioP2
37771;SDS011;23610;59.380;24.642;2023-06-19T00:03:26;5.13;;;2.42;;
37771;SDS011;23610;59.380;24.642;2023-06-19T00:08:29;7.47;;;2.30;;
37771;SDS011;23610;59.380;24.642;2023-06-19T00:13:32;4.97;;;2.30;;
37771;SDS011;23610;59.380;24.642;2023-06-19T00:18:35;10.25;;;2.90;;
37771;SDS011;23610;59.380;24.642;2023-06-19T00:23:42;6.22;;;3.05;;
37771;SDS011;23610;59.380;24.642;2023-06-19T00:28:44;9.02;;;2.33;;
37771;SDS011;23610;59.380;24.642;2023-06-19T00:33:49;8.88;;;2.67;;
37771;SDS011;23610;59.380;24.642;2023-06-19T00:38:52;4.38;;;2.40;;
37771;SDS011;23610;59.380;24.642;2023-06-19T00:43:54;11.15;;;2.55;;
37771;SDS011;23610;59.380;24.642;2023-06-19T00:48:57;4.50;;;2.75;;
37771;SDS011;23610;59.380;24.642;2023-06-19T00:54:00;2.92;;;2.30;;
37771;SDS011;23610;59.380;24.642;2023-06-19T00:59:05;8.57;;;2.70;;
37771;SDS011;23610;59.380;24.642;2023-06-19T01:04:18;5.80;;;3.58;;
37771;SDS011;23610;59.380;24.642;2023-06-19T01:09:21;2.80;;;2.08;;
37771;SDS011;23610;59.380;24.642;2023-06-19T01:14:25;6.72;;;2.72;;
37771;SDS011;23610;59.380;24.642;2023-06-19T01:19:32;11.57;;;2.72;;
37771;SDS011;23610;59.380;24.642;2023-06-19T01:24:36;7.63;;;2.77;;
37771;SDS011;23610;59.380;24.642;2023-06-19T01:29:39;6.28;;;3.33;;
37771;SDS011;23610;59.380;24.642;2023-06-19T01:34:41;6.90;;;3.40;;
37771;SDS011;23610;59.380;24.642;2023-06-19T01:39:44;5.20;;;2.42;;
37771;SDS011;23610;59.380;24.642;2023-06-19T01:44:49;12.25;;;3.10;;
37771;SDS011;23610;59.380;24.642;2023-06-19T01:49:52;7.03;;;3.17;;
37771;SDS011;23610;59.380;24.642;2023-06-19T01:54:54;7.18;;;2.70;;
37771;SDS011;23610;59.380;24.642;2023-06-19T01:59:57;8.25;;;2.70;;
37771;SDS011;23610;59.380;24.642;2023-06-19T02:05:00;16.42;;;3.17;;
37771;SDS011;23610;59.380;24.642;2023-06-19T02:10:04;7.15;;;3.28;;
37771;SDS011;23610;59.380;24.642;2023-06-19T02:15:07;8.98;;;2.80;;
37771;SDS011;23610;59.380;24.642;2023-06-19T02:20:11;7.32;;;2.50;;
37771;SDS011;23610;59.380;24.642;2023-06-19T02:25:14;7.97;;;2.60;;
37771;SDS011;23610;59.380;24.642;2023-06-19T02:30:17;10.77;;;3.35;;
37771;SDS011;23610;59.380;24.642;2023-06-19T02:35:19;6.05;;;2.72;;
37771;SDS011;23610;59.380;24.642;2023-06-19T02:40:22;5.53;;;2.40;;
37771;SDS011;23610;59.380;24.642;2023-06-19T02:45:25;7.55;;;2.80;;
37771;SDS011;23610;59.380;24.642;2023-06-19T02:50:28;11.73;;;2.92;;
37771;SDS011;23610;59.380;24.642;2023-06-19T02:55:30;20.27;;;3.30;;
37771;SDS011;23610;59.380;24.642;2023-06-19T03:00:33;5.93;;;3.47;;
37771;SDS011;23610;59.380;24.642;2023-06-19T03:05:35;3.78;;;2.85;;
37771;SDS011;23610;59.380;24.642;2023-06-19T03:10:38;5.35;;;2.50;;
37771;SDS011;23610;59.380;24.642;2023-06-19T03:15:40;8.65;;;3.45;;
37771;SDS011;23610;59.380;24.642;2023-06-19T03:20:43;8.70;;;2.60;;
37771;SDS011;23610;59.380;24.642;2023-06-19T03:25:46;4.82;;;2.20;;
37771;SDS011;23610;59.380;24.642;2023-06-19T03:30:49;13.68;;;2.47;;
37771;SDS011;23610;59.380;24.642;2023-06-19T03:35:56;2.95;;;2.15;;
37771;SDS011;23610;59.380;24.642;2023-06-19T03:41:11;9.98;;;3.22;;
37771;SDS011;23610;59.380;24.642;2023-06-19T03:46:15;8.15;;;3.25;;
37771;SDS011;23610;59.380;24.642;2023-06-19T03:51:18;4.57;;;2.60;;
37771;SDS011;23610;59.380;24.642;2023-06-19T03:56:20;4.00;;;2.15;;
37771;SDS011;23610;59.380;24.642;2023-06-19T04:01:23;8.13;;;3.15;;
37771;SDS011;23610;59.380;24.642;2023-06-19T04:06:25;10.20;;;3.42;;
37771;SDS011;23610;59.380;24.642;2023-06-19T04:11:28;11.93;;;3.90;;
37771;SDS011;23610;59.380;24.642;2023-06-19T04:16:31;9.75;;;3.47;;
37771;SDS011;23610;59.380;24.642;2023-06-19T04:21:34;13.82;;;3.13;;
37771;SDS011;23610;59.380;24.642;2023-06-19T04:26:39;12.07;;;3.65;;
37771;SDS011;23610;59.380;24.642;2023-06-19T04:31:46;12.85;;;2.90;;
37771;SDS011;23610;59.380;24.642;2023-06-19T04:36:49;12.57;;;3.35;;
37771;SDS011;23610;59.380;24.642;2023-06-19T04:41:51;21.63;;;3.38;;
37771;SDS011;23610;59.380;24.642;2023-06-19T04:46:54;23.92;;;4.82;;
37771;SDS011;23610;59.380;24.642;2023-06-19T04:52:02;10.07;;;3.80;;
37771;SDS011;23610;59.380;24.642;2023-06-19T04:57:05;11.27;;;3.55;;
37771;SDS011;23610;59.380;24.642;2023-06-19T05:02:08;8.00;;;3.30;;
37771;SDS011;23610;59.380;24.642;2023-06-19T05:07:11;12.48;;;3.40;;
37771;SDS011;23610;59.380;24.642;2023-06-19T05:12:15;12.45;;;3.22;;
37771;SDS011;23610;59.380;24.642;2023-06-19T05:17:18;24.00;;;3.45;;
37771;SDS011;23610;59.380;24.642;2023-06-19T05:22:21;9.07;;;4.07;;
37771;SDS011;23610;59.380;24.642;2023-06-19T05:27:25;26.98;;;3.63;;
37771;SDS011;23610;59.380;24.642;2023-06-19T05:32:28;18.67;;;4.13;;
37771;SDS011;23610;59.380;24.642;2023-06-19T05:37:30;10.52;;;3.05;;
37771;SDS011;23610;59.380;24.642;2023-06-19T05:42:33;10.00;;;3.25;;
37771;SDS011;23610;59.380;24.642;2023-06-19T05:47:35;13.98;;;3.75;;
37771;SDS011;23610;59.380;24.642;2023-06-19T05:52:38;15.15;;;3.90;;
37771;SDS011;23610;59.380;24.642;2023-06-19T05:57:44;9.57;;;3.53;;
37771;SDS011;23610;59.380;24.642;2023-06-19T06:02:47;7.88;;;3.10;;
37771;SDS011;23610;59.380;24.642;2023-06-19T06:07:50;9.15;;;3.40;;
37771;SDS011;23610;59.380;24.642;2023-06-19T06:12:52;6.25;;;3.38;;
37771;SDS011;23610;59.380;24.642;2023-06-19T06:17:55;10.63;;;2.38;;
37771;SDS011;23610;59.380;24.642;2023-06-19T06:22:57;6.32;;;2.60;;
37771;SDS011;23610;59.380;24.642;2023-06-19T06:28:00;10.00;;;4.00;;
37771;SDS011;23610;59.380;24.642;2023-06-19T06:33:03;20.77;;;4.15;;
37771;SDS011;23610;59.380;24.642;2023-06-19T06:38:05;7.00;;;2.92;;
37771;SDS011;23610;59.380;24.642;2023-06-19T06:43:08;7.45;;;2.88;;
37771;SDS011;23610;59.380;24.642;2023-06-19T06:48:11;11.40;;;4.07;;
37771;SDS011;23610;59.380;24.642;2023-06-19T06:53:14;5.10;;;3.28;;
37771;SDS011;23610;59.380;24.642;2023-06-19T06:58:16;5.82;;;3.08;;
37771;SDS011;23610;59.380;24.642;2023-06-19T07:03:20;4.90;;;3.30;;
37771;SDS011;23610;59.380;24.642;2023-06-19T07:08:23;8.27;;;3.40;;
37771;SDS011;23610;59.380;24.642;2023-06-19T07:13:25;8.95;;;3.53;;
37771;SDS011;23610;59.380;24.642;2023-06-19T07:18:28;6.78;;;2.90;;
37771;SDS011;23610;59.380;24.642;2023-06-19T07:23:31;6.10;;;3.97;;
37771;SDS011;23610;59.380;24.642;2023-06-19T07:33:38;13.40;;;4.43;;
37771;SDS011;23610;59.380;24.642;2023-06-19T07:38:44;23.23;;;4.20;;
37771;SDS011;23610;59.380;24.642;2023-06-19T07:43:47;7.68;;;3.25;;
37771;SDS011;23610;59.380;24.642;2023-06-19T07:48:50;13.50;;;4.25;;
37771;SDS011;23610;59.380;24.642;2023-06-19T07:53:52;8.35;;;3.53;;
37771;SDS011;23610;59.380;24.642;2023-06-19T07:58:55;9.65;;;3.45;;
37771;SDS011;23610;59.380;24.642;2023-06-19T08:03:58;6.38;;;3.33;;
37771;SDS011;23610;59.380;24.642;2023-06-19T08:09:01;7.65;;;3.40;;
37771;SDS011;23610;59.380;24.642;2023-06-19T08:14:03;12.10;;;3.83;;
37771;SDS011;23610;59.380;24.642;2023-06-19T08:19:06;10.55;;;3.40;;
37771;SDS011;23610;59.380;24.642;2023-06-19T08:24:08;11.48;;;4.00;;
37771;SDS011;23610;59.380;24.642;2023-06-19T08:29:11;12.60;;;3.17;;
37771;SDS011;23610;59.380;24.642;2023-06-19T08:34:14;10.82;;;3.97;;
37771;SDS011;23610;59.380;24.642;2023-06-19T08:39:16;12.48;;;3.17;;
37771;SDS011;23610;59.380;24.642;2023-06-19T08:44:19;6.03;;;3.47;;
37771;SDS011;23610;59.380;24.642;2023-06-19T08:49:22;8.30;;;3.10;;
37771;SDS011;23610;59.380;24.642;2023-06-19T08:54:24;8.57;;;2.80;;
37771;SDS011;23610;59.380;24.642;2023-06-19T08:59:27;7.78;;;2.60;;
37771;SDS011;23610;59.380;24.642;2023-06-19T09:04:32;7.90;;;2.75;;
37771;SDS011;23610;59.380;24.642;2023-06-19T09:09:35;5.43;;;3.10;;
37771;SDS011;23610;59.380;24.642;2023-06-19T09:14:41;6.22;;;2.60;;
37771;SDS011;23610;59.380;24.642;2023-06-19T09:19:49;4.10;;;2.10;;
37771;SDS011;23610;59.380;24.642;2023-06-19T09:24:53;7.38;;;2.00;;
37771;SDS011;23610;59.380;24.642;2023-06-19T09:30:04;5.10;;;2.20;;
37771;SDS011;23610;59.380;24.642;2023-06-19T09:35:10;6.10;;;2.55;;
37771;SDS011;23610;59.380;24.642;2023-06-19T09:40:12;3.65;;;2.38;;
37771;SDS011;23610;59.380;24.642;2023-06-19T09:45:15;4.20;;;2.30;;
37771;SDS011;23610;59.380;24.642;2023-06-19T09:50:23;8.52;;;2.60;;
37771;SDS011;23610;59.380;24.642;2023-06-19T09:55:28;6.00;;;2.63;;
37771;SDS011;23610;59.380;24.642;2023-06-19T10:00:32;5.53;;;2.40;;
37771;SDS011;23610;59.380;24.642;2023-06-19T10:05:36;5.60;;;2.38;;
37771;SDS011;23610;59.380;24.642;2023-06-19T10:10:46;3.45;;;1.98;;
37771;SDS011;23610;59.380;24.642;2023-06-19T10:15:52;2.73;;;2.13;;
37771;SDS011;23610;59.380;24.642;2023-06-19T10:20:55;5.65;;;2.40;;
37771;SDS011;23610;59.380;24.642;2023-06-19T10:25:58;3.67;;;2.35;;
37771;SDS011;23610;59.380;24.642;2023-06-19T10:31:05;5.68;;;2.17;;
37771;SDS011;23610;59.380;24.642;2023-06-19T10:36:19;5.55;;;2.35;;
37771;SDS011;23610;59.380;24.642;2023-06-19T10:41:27;11.05;;;2.40;;
37771;SDS011;23610;59.380;24.642;2023-06-19T10:46:34;4.93;;;2.25;;
37771;SDS011;23610;59.380;24.642;2023-06-19T10:51:38;5.85;;;2.55;;
37771;SDS011;23610;59.380;24.642;2023-06-19T10:56:44;3.88;;;2.13;;
37771;SDS011;23610;59.380;24.642;2023-06-19T11:01:50;9.98;;;2.30;;
37771;SDS011;23610;59.380;24.642;2023-06-19T11:06:52;3.55;;;2.00;;
37771;SDS011;23610;59.380;24.642;2023-06-19T11:11:55;6.30;;;2.00;;
37771;SDS011;23610;59.380;24.642;2023-06-19T11:16:58;8.23;;;2.47;;
37771;SDS011;23610;59.380;24.642;2023-06-19T11:22:00;7.70;;;4.13;;
37771;SDS011;23610;59.380;24.642;2023-06-19T11:27:04;11.30;;;2.30;;
37771;SDS011;23610;59.380;24.642;2023-06-19T11:32:13;3.78;;;2.38;;
37771;SDS011;23610;59.380;24.642;2023-06-19T11:37:25;5.78;;;2.88;;
37771;SDS011;23610;59.380;24.642;2023-06-19T11:42:31;9.23;;;2.40;;
37771;SDS011;23610;59.380;24.642;2023-06-19T11:47:34;8.70;;;2.85;;
37771;SDS011;23610;59.380;24.642;2023-06-19T11:52:38;7.93;;;2.13;;
37771;SDS011;23610;59.380;24.642;2023-06-19T11:57:43;9.40;;;2.30;;
37771;SDS011;23610;59.380;24.642;2023-06-19T12:02:46;6.68;;;2.53;;
37771;SDS011;23610;59.380;24.642;2023-06-19T12:07:49;6.47;;;2.20;;
37771;SDS011;23610;59.380;24.642;2023-06-19T12:12:52;7.70;;;2.20;;
37771;SDS011;23610;59.380;24.642;2023-06-19T12:17:54;5.18;;;2.72;;
37771;SDS011;23610;59.380;24.642;2023-06-19T12:22:59;5.13;;;3.25;;
37771;SDS011;23610;59.380;24.642;2023-06-19T12:28:02;4.13;;;2.45;;
37771;SDS011;23610;59.380;24.642;2023-06-19T12:33:07;6.72;;;2.55;;
37771;SDS011;23610;59.380;24.642;2023-06-19T12:38:10;7.68;;;2.30;;
37771;SDS011;23610;59.380;24.642;2023-06-19T12:43:13;2.10;;;1.83;;
37771;SDS011;23610;59.380;24.642;2023-06-19T12:48:15;4.95;;;2.53;;
37771;SDS011;23610;59.380;24.642;2023-06-19T12:53:18;6.43;;;2.55;;
37771;SDS011;23610;59.380;24.642;2023-06-19T13:03:25;5.78;;;2.40;;
37771;SDS011;23610;59.380;24.642;2023-06-19T13:08:28;3.83;;;2.47;;
37771;SDS011;23610;59.380;24.642;2023-06-19T13:13:30;2.67;;;2.22;;
37771;SDS011;23610;59.380;24.642;2023-06-19T13:18:33;3.13;;;2.00;;
37771;SDS011;23610;59.380;24.642;2023-06-19T13:23:35;3.17;;;1.95;;
37771;SDS011;23610;59.380;24.642;2023-06-19T13:28:38;3.67;;;2.22;;
37771;SDS011;23610;59.380;24.642;2023-06-19T13:33:41;5.03;;;2.05;;
37771;SDS011;23610;59.380;24.642;2023-06-19T13:38:43;6.78;;;1.85;;
37771;SDS011;23610;59.380;24.642;2023-06-19T13:43:46;4.75;;;1.80;;
37771;SDS011;23610;59.380;24.642;2023-06-19T13:48:49;2.40;;;1.50;;
37771;SDS011;23610;59.380;24.642;2023-06-19T13:53:53;2.85;;;1.33;;
37771;SDS011;23610;59.380;24.642;2023-06-19T13:58:57;3.70;;;1.60;;
37771;SDS011;23610;59.380;24.642;2023-06-19T14:04:00;2.10;;;1.13;;
37771;SDS011;23610;59.380;24.642;2023-06-19T14:09:03;1.50;;;1.38;;
37771;SDS011;23610;59.380;24.642;2023-06-19T14:14:06;6.83;;;1.30;;
37771;SDS011;23610;59.380;24.642;2023-06-19T14:19:09;1.83;;;1.50;;
37771;SDS011;23610;59.380;24.642;2023-06-19T14:24:12;9.73;;;1.52;;
37771;SDS011;23610;59.380;24.642;2023-06-19T14:29:14;8.55;;;1.25;;
37771;SDS011;23610;59.380;24.642;2023-06-19T14:34:20;2.17;;;0.95;;
37771;SDS011;23610;59.380;24.642;2023-06-19T14:39:22;3.33;;;1.20;;
37771;SDS011;23610;59.380;24.642;2023-06-19T14:44:25;2.90;;;1.30;;
37771;SDS011;23610;59.380;24.642;2023-06-19T14:49:27;5.22;;;1.52;;
37771;SDS011;23610;59.380;24.642;2023-06-19T14:54:30;4.20;;;1.20;;
37771;SDS011;23610;59.380;24.642;2023-06-19T14:59:33;1.30;;;1.20;;
37771;SDS011;23610;59.380;24.642;2023-06-19T15:04:35;4.18;;;1.13;;
37771;SDS011;23610;59.380;24.642;2023-06-19T15:09:38;2.58;;;1.33;;
37771;SDS011;23610;59.380;24.642;2023-06-19T15:14:41;1.23;;;1.05;;
37771;SDS011;23610;59.380;24.642;2023-06-19T15:19:43;1.48;;;1.20;;
37771;SDS011;23610;59.380;24.642;2023-06-19T15:24:46;1.35;;;1.25;;
37771;SDS011;23610;59.380;24.642;2023-06-19T15:29:48;1.13;;;1.08;;
37771;SDS011;23610;59.380;24.642;2023-06-19T15:34:51;2.40;;;1.30;;
37771;SDS011;23610;59.380;24.642;2023-06-19T15:39:53;2.63;;;1.10;;
37771;SDS011;23610;59.380;24.642;2023-06-19T15:44:56;1.45;;;1.33;;
37771;SDS011;23610;59.380;24.642;2023-06-19T15:49:59;0.88;;;0.80;;
37771;SDS011;23610;59.380;24.642;2023-06-19T15:55:02;1.77;;;1.02;;
37771;SDS011;23610;59.380;24.642;2023-06-19T16:00:05;1.43;;;1.00;;
37771;SDS011;23610;59.380;24.642;2023-06-19T16:05:15;1.65;;;1.30;;
37771;SDS011;23610;59.380;24.642;2023-06-19T16:10:18;2.25;;;1.83;;
37771;SDS011;23610;59.380;24.642;2023-06-19T16:15:21;5.13;;;1.30;;
37771;SDS011;23610;59.380;24.642;2023-06-19T16:20:29;2.75;;;1.20;;
37771;SDS011;23610;59.380;24.642;2023-06-19T16:25:32;2.22;;;1.13;;
37771;SDS011;23610;59.380;24.642;2023-06-19T16:30:34;2.53;;;1.38;;
37771;SDS011;23610;59.380;24.642;2023-06-19T16:35:37;2.53;;;1.42;;
37771;SDS011;23610;59.380;24.642;2023-06-19T16:40:39;8.00;;;2.05;;
37771;SDS011;23610;59.380;24.642;2023-06-19T16:45:42;4.63;;;1.30;;
37771;SDS011;23610;59.380;24.642;2023-06-19T16:50:44;2.88;;;1.15;;
37771;SDS011;23610;59.380;24.642;2023-06-19T16:55:48;8.80;;;1.20;;
37771;SDS011;23610;59.380;24.642;2023-06-19T17:00:52;1.80;;;1.13;;
37771;SDS011;23610;59.380;24.642;2023-06-19T17:05:55;1.57;;;1.40;;
37771;SDS011;23610;59.380;24.642;2023-06-19T17:10:57;5.75;;;1.40;;
37771;SDS011;23610;59.380;24.642;2023-06-19T17:16:00;1.50;;;1.40;;
37771;SDS011;23610;59.380;24.642;2023-06-19T17:21:02;2.60;;;1.42;;
37771;SDS011;23610;59.380;24.642;2023-06-19T17:26:05;4.47;;;1.83;;
37771;SDS011;23610;59.380;24.642;2023-06-19T17:31:08;7.32;;;1.13;;
37771;SDS011;23610;59.380;24.642;2023-06-19T17:36:10;3.05;;;1.88;;
37771;SDS011;23610;59.380;24.642;2023-06-19T17:41:13;3.00;;;1.67;;
37771;SDS011;23610;59.380;24.642;2023-06-19T17:46:15;11.27;;;1.83;;
37771;SDS011;23610;59.380;24.642;2023-06-19T17:51:18;4.20;;;2.13;;
37771;SDS011;23610;59.380;24.642;2023-06-19T17:56:21;6.85;;;1.90;;
37771;SDS011;23610;59.380;24.642;2023-06-19T18:01:23;3.83;;;1.80;;
37771;SDS011;23610;59.380;24.642;2023-06-19T18:06:26;13.10;;;2.20;;
37771;SDS011;23610;59.380;24.642;2023-06-19T18:11:29;2.20;;;2.00;;
37771;SDS011;23610;59.380;24.642;2023-06-19T18:16:31;10.00;;;1.60;;
37771;SDS011;23610;59.380;24.642;2023-06-19T18:21:38;5.05;;;2.15;;
37771;SDS011;23610;59.380;24.642;2023-06-19T18:26:41;5.25;;;1.73;;
37771;SDS011;23610;59.380;24.642;2023-06-19T18:31:43;2.45;;;1.70;;
37771;SDS011;23610;59.380;24.642;2023-06-19T18:36:46;6.53;;;1.75;;
37771;SDS011;23610;59.380;24.642;2023-06-19T18:41:52;1.77;;;1.23;;
37771;SDS011;23610;59.380;24.642;2023-06-19T18:46:56;1.93;;;1.63;;
37771;SDS011;23610;59.380;24.642;2023-06-19T18:51:58;2.50;;;1.83;;
37771;SDS011;23610;59.380;24.642;2023-06-19T18:57:01;8.75;;;1.73;;
37771;SDS011;23610;59.380;24.642;2023-06-19T19:02:04;3.47;;;2.58;;
37771;SDS011;23610;59.380;24.642;2023-06-19T19:07:08;1.88;;;1.63;;
37771;SDS011;23610;59.380;24.642;2023-06-19T19:12:11;4.75;;;2.17;;
37771;SDS011;23610;59.380;24.642;2023-06-19T19:17:15;3.35;;;2.28;;
37771;SDS011;23610;59.380;24.642;2023-06-19T19:22:18;3.75;;;1.90;;
37771;SDS011;23610;59.380;24.642;2023-06-19T19:27:21;3.70;;;1.70;;
37771;SDS011;23610;59.380;24.642;2023-06-19T19:32:23;4.68;;;1.75;;
37771;SDS011;23610;59.380;24.642;2023-06-19T19:37:26;6.03;;;2.78;;
37771;SDS011;23610;59.380;24.642;2023-06-19T19:42:29;6.28;;;1.60;;
37771;SDS011;23610;59.380;24.642;2023-06-19T19:47:32;1.70;;;1.60;;
37771;SDS011;23610;59.380;24.642;2023-06-19T19:52:35;7.60;;;2.10;;
37771;SDS011;23610;59.380;24.642;2023-06-19T19:57:38;3.55;;;1.80;;
37771;SDS011;23610;59.380;24.642;2023-06-19T20:02:41;5.07;;;2.42;;
37771;SDS011;23610;59.380;24.642;2023-06-19T20:07:44;5.90;;;1.73;;
37771;SDS011;23610;59.380;24.642;2023-06-19T20:12:47;4.10;;;1.65;;
37771;SDS011;23610;59.380;24.642;2023-06-19T20:17:49;4.72;;;1.75;;
37771;SDS011;23610;59.380;24.642;2023-06-19T20:22:52;6.53;;;3.13;;
37771;SDS011;23610;59.380;24.642;2023-06-19T20:27:55;2.55;;;1.80;;
37771;SDS011;23610;59.380;24.642;2023-06-19T20:33:08;5.13;;;2.85;;
37771;SDS011;23610;59.380;24.642;2023-06-19T20:38:11;8.05;;;2.53;;
37771;SDS011;23610;59.380;24.642;2023-06-19T20:43:14;5.40;;;2.03;;
37771;SDS011;23610;59.380;24.642;2023-06-19T20:48:17;4.78;;;2.58;;
37771;SDS011;23610;59.380;24.642;2023-06-19T20:53:20;3.00;;;2.28;;
37771;SDS011;23610;59.380;24.642;2023-06-19T20:58:23;4.18;;;2.17;;
37771;SDS011;23610;59.380;24.642;2023-06-19T21:03:28;3.53;;;2.05;;
37771;SDS011;23610;59.380;24.642;2023-06-19T21:08:33;3.03;;;2.03;;
37771;SDS011;23610;59.380;24.642;2023-06-19T21:13:35;5.40;;;2.53;;
37771;SDS011;23610;59.380;24.642;2023-06-19T21:18:38;2.30;;;2.10;;
37771;SDS011;23610;59.380;24.642;2023-06-19T21:23:40;3.78;;;2.00;;
37771;SDS011;23610;59.380;24.642;2023-06-19T21:28:43;11.98;;;1.95;;
37771;SDS011;23610;59.380;24.642;2023-06-19T21:33:45;7.47;;;2.58;;
37771;SDS011;23610;59.380;24.642;2023-06-19T21:38:48;7.53;;;3.03;;
37771;SDS011;23610;59.380;24.642;2023-06-19T21:43:51;9.77;;;2.42;;
37771;SDS011;23610;59.380;24.642;2023-06-19T21:48:53;16.25;;;3.70;;
37771;SDS011;23610;59.380;24.642;2023-06-19T21:53:56;3.28;;;2.13;;
37771;SDS011;23610;59.380;24.642;2023-06-19T21:58:58;10.32;;;2.42;;
37771;SDS011;23610;59.380;24.642;2023-06-19T22:04:01;5.00;;;2.20;;
37771;SDS011;23610;59.380;24.642;2023-06-19T22:09:07;2.22;;;1.98;;
37771;SDS011;23610;59.380;24.642;2023-06-19T22:14:10;6.45;;;2.17;;
37771;SDS011;23610;59.380;24.642;2023-06-19T22:19:12;5.65;;;2.70;;
37771;SDS011;23610;59.380;24.642;2023-06-19T22:24:15;6.20;;;2.72;;
37771;SDS011;23610;59.380;24.642;2023-06-19T22:29:18;2.28;;;2.08;;
37771;SDS011;23610;59.380;24.642;2023-06-19T22:34:20;1.95;;;1.77;;
37771;SDS011;23610;59.380;24.642;2023-06-19T22:39:23;10.98;;;2.35;;
37771;SDS011;23610;59.380;24.642;2023-06-19T22:44:25;6.05;;;3.08;;
37771;SDS011;23610;59.380;24.642;2023-06-19T22:49:28;4.00;;;2.00;;
37771;SDS011;23610;59.380;24.642;2023-06-19T22:54:31;3.75;;;2.22;;
37771;SDS011;23610;59.380;24.642;2023-06-19T22:59:34;4.07;;;1.98;;
37771;SDS011;23610;59.380;24.642;2023-06-19T23:04:36;13.95;;;2.10;;
37771;SDS011;23610;59.380;24.642;2023-06-19T23:09:40;7.35;;;2.17;;
37771;SDS011;23610;59.380;24.642;2023-06-19T23:14:42;4.45;;;2.42;;
37771;SDS011;23610;59.380;24.642;2023-06-19T23:19:45;2.75;;;1.73;;
37771;SDS011;23610;59.380;24.642;2023-06-19T23:24:47;2.20;;;1.80;;
37771;SDS011;23610;59.380;24.642;2023-06-19T23:29:50;3.25;;;1.75;;
37771;SDS011;23610;59.380;24.642;2023-06-19T23:34:52;5.40;;;2.22;;
37771;SDS011;23610;59.380;24.642;2023-06-19T23:39:55;7.10;;;2.03;;
37771;SDS011;23610;59.380;24.642;2023-06-19T23:44:57;4.50;;;1.80;;
37771;SDS011;23610;59.380;24.642;2023-06-19T23:50:00;4.65;;;1.88;;
37771;SDS011;23610;59.380;24.642;2023-06-19T23:55:03;5.05;;;1.95;;
